createdAt,value
2022-10-14T00:01:54.784Z,99.90
2022-10-14T00:06:57.880Z,99.90
2022-10-14T00:12:01.968Z,99.90
2022-10-14T00:17:04.855Z,99.90
2022-10-14T00:22:07.787Z,99.90
2022-10-14T00:27:11.879Z,99.90
2022-10-14T00:32:14.712Z,99.90
2022-10-14T00:37:17.508Z,99.90
2022-10-14T00:42:21.642Z,99.90
2022-10-14T00:47:24.531Z,99.90
2022-10-14T00:52:27.855Z,99.90
2022-10-14T00:57:32.406Z,99.90
2022-10-14T01:02:35.492Z,99.90
2022-10-14T01:07:45.616Z,99.90
2022-10-14T01:13:00.101Z,99.90
2022-10-14T01:18:15.618Z,99.90
2022-10-14T01:23:51.289Z,99.90
2022-10-14T01:29:12.436Z,99.90
2022-10-14T01:34:24.647Z,99.90
2022-10-14T01:39:32.751Z,99.90
2022-10-14T01:44:39.890Z,99.90
2022-10-14T01:49:48.355Z,99.90
2022-10-14T01:54:53.608Z,99.90
2022-10-14T02:00:06.752Z,99.90
2022-10-14T02:05:17.557Z,99.90
2022-10-14T02:10:34.744Z,99.90
2022-10-14T02:15:44.440Z,99.90
2022-10-14T02:20:55.359Z,99.90
2022-10-14T02:25:58.781Z,99.90
2022-10-14T02:31:06.599Z,99.90
2022-10-14T02:36:13.571Z,99.90
2022-10-14T02:41:20.160Z,99.90
2022-10-14T02:46:23.748Z,99.90
2022-10-14T02:51:27.870Z,99.90
2022-10-14T02:56:30.609Z,99.90
2022-10-14T03:01:37.407Z,99.90
2022-10-14T03:06:41.947Z,99.90
2022-10-14T03:11:44.706Z,99.90
2022-10-14T03:16:47.460Z,99.90
2022-10-14T03:21:51.642Z,99.90
2022-10-14T03:26:54.395Z,99.90
2022-10-14T03:31:57.374Z,99.90
2022-10-14T03:37:01.447Z,99.90
2022-10-14T03:42:04.679Z,99.90
2022-10-14T03:47:07.682Z,99.90
2022-10-14T03:52:11.792Z,99.90
2022-10-14T03:57:14.593Z,99.90
2022-10-14T04:02:17.343Z,99.90
2022-10-14T04:07:21.735Z,99.90
2022-10-14T04:12:24.575Z,99.90
2022-10-14T04:17:27.412Z,99.90
2022-10-14T04:22:31.560Z,99.90
2022-10-14T04:27:34.573Z,99.90
2022-10-14T04:32:37.315Z,99.90
2022-10-14T04:37:41.435Z,99.90
2022-10-14T04:42:44.161Z,99.90
2022-10-14T04:47:49.001Z,99.90
2022-10-14T04:52:53.063Z,99.90
2022-10-14T04:57:55.869Z,99.90
2022-10-14T05:02:58.663Z,99.90
2022-10-14T05:08:02.768Z,99.90
2022-10-14T05:13:05.854Z,99.90
2022-10-14T05:18:08.648Z,99.90
2022-10-14T05:23:12.797Z,99.90
2022-10-14T05:28:15.618Z,99.90
2022-10-14T05:33:18.383Z,99.90
2022-10-14T05:38:22.475Z,99.90
2022-10-14T05:43:29.496Z,99.90
2022-10-14T05:48:34.892Z,99.90
2022-10-14T05:53:39.959Z,99.90
2022-10-14T05:58:42.736Z,99.90
2022-10-14T06:03:45.506Z,99.90
2022-10-14T06:08:49.624Z,99.90
2022-10-14T06:13:53.567Z,99.90
2022-10-14T06:18:56.320Z,99.90
2022-10-14T06:24:00.432Z,99.90
2022-10-14T06:29:03.455Z,99.90
2022-10-14T06:34:06.988Z,99.90
2022-10-14T06:39:11.252Z,99.90
2022-10-14T06:44:15.521Z,99.90
2022-10-14T06:49:18.443Z,99.90
2022-10-14T06:54:22.797Z,99.90
2022-10-14T06:59:25.901Z,99.90
2022-10-14T07:04:28.679Z,99.90
2022-10-14T07:09:32.786Z,99.90
2022-10-14T07:14:35.565Z,99.90
2022-10-14T07:19:38.378Z,99.90
2022-10-14T07:24:42.431Z,99.90
2022-10-14T07:29:45.192Z,99.90
2022-10-14T07:34:48.473Z,99.90
2022-10-14T07:39:52.612Z,99.90
2022-10-14T07:44:55.445Z,99.90
2022-10-14T07:49:58.213Z,99.90
2022-10-14T07:55:02.608Z,99.90
2022-10-14T08:00:06.410Z,99.90
2022-10-14T08:05:36.562Z,99.90
2022-10-14T08:10:34.554Z,99.90
2022-10-14T08:15:40.563Z,99.90
2022-10-14T08:20:43.316Z,99.90
2022-10-14T08:25:49.251Z,99.90
2022-10-14T08:30:52.815Z,99.90
2022-10-14T08:35:55.620Z,99.90
2022-10-14T08:41:09.200Z,1.00
2022-10-14T08:46:22.287Z,1.00
2022-10-14T08:51:25.273Z,99.90
2022-10-14T08:56:29.422Z,1.00
2022-10-14T09:01:34.148Z,1.00
2022-10-14T09:06:41.462Z,1.00
2022-10-14T09:11:50.855Z,1.00
2022-10-14T09:16:58.477Z,1.00
2022-10-14T09:22:02.380Z,99.90
2022-10-14T09:27:12.436Z,1.00
2022-10-14T09:32:22.076Z,1.00
2022-10-14T09:37:28.554Z,1.00
2022-10-14T09:42:43.213Z,1.00
2022-10-14T09:47:51.745Z,1.00
2022-10-14T09:52:58.341Z,99.90
2022-10-14T09:58:06.967Z,99.90
2022-10-14T10:03:24.557Z,99.90
2022-10-14T10:08:27.556Z,99.90
2022-10-14T10:13:38.307Z,1.00
2022-10-14T10:18:43.148Z,99.90
2022-10-14T10:23:54.092Z,1.00
2022-10-14T10:28:59.597Z,1.00
2022-10-14T10:34:14.206Z,99.90
2022-10-14T10:39:27.456Z,1.00
2022-10-14T10:44:50.341Z,1.00
2022-10-14T10:50:04.684Z,1.00
2022-10-14T10:55:17.935Z,1.00
2022-10-14T11:05:49.688Z,99.90
2022-10-14T11:11:19.898Z,1.00
2022-10-14T11:16:31.526Z,1.00
2022-10-14T11:21:41.356Z,99.90
2022-10-14T11:27:06.306Z,30.80
2022-10-14T11:32:20.778Z,1.00
2022-10-14T11:37:31.028Z,99.90
2022-10-14T11:42:49.843Z,1.00
2022-10-14T11:47:55.839Z,1.00
2022-10-14T11:53:06.354Z,1.00
2022-10-14T11:58:15.389Z,1.00
2022-10-14T12:03:25.036Z,1.00
2022-10-14T12:08:34.821Z,1.00
2022-10-14T12:13:43.013Z,1.00
2022-10-14T12:18:50.492Z,1.00
2022-10-14T12:23:58.609Z,1.00
2022-10-14T12:29:04.470Z,1.00
2022-10-14T12:34:28.587Z,1.00
2022-10-14T12:39:34.546Z,1.00
2022-10-14T12:44:45.494Z,1.00
2022-10-14T12:49:52.780Z,1.00
2022-10-14T12:54:56.757Z,21.90
2022-10-14T13:00:02.426Z,1.00
2022-10-14T13:05:09.555Z,1.00
2022-10-14T13:10:46.831Z,1.00
2022-10-14T13:15:52.230Z,1.00
2022-10-14T13:20:56.353Z,69.50
2022-10-14T13:26:11.735Z,1.00
2022-10-14T13:31:20.819Z,1.00
2022-10-14T13:36:34.052Z,1.00
2022-10-14T13:41:38.522Z,1.00
2022-10-14T13:46:44.456Z,24.90
2022-10-14T13:51:52.370Z,1.00
2022-10-14T13:57:34.698Z,1.00
2022-10-14T14:02:27.283Z,1.00
2022-10-14T14:07:59.510Z,1.00
2022-10-14T14:13:00.232Z,1.00
2022-10-14T14:18:02.974Z,1.00
2022-10-14T14:23:07.088Z,1.00
2022-10-14T14:28:15.039Z,1.00
2022-10-14T14:33:21.050Z,1.00
2022-10-14T14:38:31.452Z,1.00
2022-10-14T14:43:39.768Z,1.00
2022-10-14T14:48:53.443Z,94.20
2022-10-14T14:53:58.703Z,1.00
2022-10-14T14:59:08.707Z,1.00
2022-10-14T15:04:17.960Z,1.00
2022-10-14T15:09:34.819Z,1.00
2022-10-14T15:14:45.703Z,99.90
2022-10-14T15:19:48.488Z,1.00
2022-10-14T15:25:09.353Z,1.00
2022-10-14T15:30:28.073Z,1.00
2022-10-14T15:35:31.365Z,1.00
2022-10-14T15:40:35.434Z,1.00
2022-10-14T15:45:38.448Z,1.00
2022-10-14T15:50:45.691Z,1.00
2022-10-14T15:55:53.286Z,51.90
2022-10-14T16:00:56.073Z,99.90
2022-10-14T16:05:59.094Z,1.00
2022-10-14T16:11:04.228Z,1.00
2022-10-14T16:16:11.023Z,31.60
2022-10-14T16:21:17.071Z,99.90
2022-10-14T16:26:21.182Z,1.00
2022-10-14T16:31:24.322Z,1.00
2022-10-14T16:36:27.087Z,1.00
2022-10-14T16:41:31.485Z,1.00
2022-10-14T16:46:51.854Z,1.00
2022-10-14T16:51:54.636Z,1.00
2022-10-14T16:56:59.712Z,1.00
2022-10-14T17:02:03.062Z,1.00
2022-10-14T17:07:08.805Z,1.00
2022-10-14T17:12:14.140Z,1.00
2022-10-14T17:17:24.439Z,1.00
2022-10-14T17:22:28.255Z,12.80
2022-10-14T17:27:32.736Z,27.70
2022-10-14T17:32:35.672Z,34.10
2022-10-14T17:37:38.682Z,25.20
2022-10-14T17:42:43.177Z,16.20
2022-10-14T17:47:45.952Z,14.40
2022-10-14T17:52:48.679Z,2.30
2022-10-14T17:57:52.792Z,1.00
2022-10-14T18:02:55.606Z,1.00
2022-10-14T18:07:58.405Z,1.00
2022-10-14T18:13:02.861Z,1.00
2022-10-14T18:18:06.587Z,1.00
2022-10-14T18:23:10.312Z,1.00
2022-10-14T18:28:14.463Z,1.00
2022-10-14T18:33:17.249Z,1.00
2022-10-14T18:38:20.071Z,1.00
2022-10-14T18:43:24.219Z,5.60
2022-10-14T18:48:27.420Z,12.60
2022-10-14T18:53:32.080Z,19.40
2022-10-14T18:58:36.743Z,36.70
2022-10-14T19:03:40.646Z,59.10
2022-10-14T19:08:45.021Z,70.20
2022-10-14T19:13:50.157Z,95.90
2022-10-14T19:18:54.266Z,90.30
2022-10-14T19:23:58.055Z,73.10
2022-10-14T19:29:06.403Z,79.20
2022-10-14T19:34:13.888Z,88.90
2022-10-14T19:39:18.825Z,71.10
2022-10-14T19:44:23.010Z,56.30
2022-10-14T19:49:25.855Z,44.60
2022-10-14T19:54:28.741Z,37.40
2022-10-14T19:59:32.868Z,23.40
2022-10-14T20:19:01.779Z,1.70
2022-10-14T20:24:58.262Z,1.00
2022-10-14T20:36:24.661Z,1.00
2022-10-14T20:41:28.330Z,10.50
2022-10-14T20:46:31.142Z,1.70
2022-10-14T20:51:35.423Z,1.00
2022-10-14T20:56:38.411Z,1.00
2022-10-14T21:01:41.270Z,1.00
2022-10-14T21:06:45.385Z,1.00
2022-10-14T21:11:48.237Z,1.00
2022-10-14T21:16:51.075Z,1.00
2022-10-14T21:21:55.263Z,1.00
2022-10-14T21:26:58.034Z,1.00
2022-10-14T21:32:02.420Z,1.00
2022-10-14T21:37:06.590Z,1.00
2022-10-14T21:42:09.333Z,1.00
2022-10-14T21:47:12.159Z,1.00
2022-10-14T21:52:16.273Z,1.00
2022-10-14T21:57:19.114Z,1.00
2022-10-14T22:02:22.594Z,1.00
2022-10-14T22:07:26.786Z,1.00
2022-10-14T22:12:30.338Z,1.00
2022-10-14T22:17:33.105Z,1.00
2022-10-14T22:22:37.365Z,1.00
2022-10-14T22:27:40.161Z,1.00
2022-10-14T22:32:42.917Z,1.00
2022-10-14T22:37:47.148Z,1.00
2022-10-14T22:42:51.496Z,1.00
2022-10-14T22:47:56.934Z,1.00
2022-10-14T22:53:01.041Z,1.00
2022-10-14T22:58:03.902Z,1.00
2022-10-14T23:03:06.750Z,1.00
2022-10-14T23:08:12.210Z,58.30
2022-10-14T23:13:14.979Z,99.90
2022-10-14T23:18:17.740Z,99.90
2022-10-14T23:23:21.875Z,99.90
2022-10-14T23:28:26.311Z,99.90
2022-10-14T23:33:29.094Z,99.90
2022-10-14T23:38:33.351Z,99.90
2022-10-14T23:43:36.601Z,99.90
2022-10-14T23:48:39.362Z,99.90
2022-10-14T23:53:43.455Z,99.90
2022-10-14T23:58:46.207Z,99.90
